createdAt,value
2023-02-02T00:02:51.238Z,1.33
2023-02-02T00:05:54.522Z,1.30
2023-02-02T00:08:58.574Z,1.10
2023-02-02T00:12:01.470Z,1.17
2023-02-02T00:15:04.014Z,1.10
2023-02-02T00:18:07.400Z,1.10
2023-02-02T00:21:09.835Z,1.10
2023-02-02T00:24:14.392Z,1.12
2023-02-02T00:27:16.929Z,1.02
2023-02-02T00:30:19.753Z,1.40
2023-02-02T00:33:22.559Z,1.62
2023-02-02T00:36:25.402Z,1.40
2023-02-02T00:39:27.808Z,1.37
2023-02-02T00:42:30.493Z,1.05
2023-02-02T00:45:32.801Z,1.10
2023-02-02T00:48:35.489Z,0.77
2023-02-02T00:51:38.172Z,1.55
2023-02-02T00:54:41.066Z,1.58
2023-02-02T00:57:46.306Z,1.15
2023-02-02T01:00:48.960Z,1.10
2023-02-02T01:03:52.111Z,1.20
2023-02-02T01:06:54.731Z,1.05
2023-02-02T01:09:57.137Z,1.02
2023-02-02T01:12:59.792Z,0.95
2023-02-02T01:16:05.843Z,1.15
2023-02-02T01:19:09.170Z,1.20
2023-02-02T01:22:11.589Z,1.30
2023-02-02T01:25:14.373Z,1.08
2023-02-02T01:28:16.693Z,1.10
2023-02-02T01:31:20.832Z,1.30
2023-02-02T01:34:23.697Z,1.10
2023-02-02T01:37:26.284Z,1.13
2023-02-02T01:40:28.618Z,1.05
2023-02-02T01:43:44.214Z,0.90
2023-02-02T01:46:46.558Z,0.88
2023-02-02T01:49:49.515Z,0.77
2023-02-02T01:52:55.547Z,0.52
2023-02-02T01:55:58.971Z,1.20
2023-02-02T01:59:02.473Z,0.83
2023-02-02T02:02:06.702Z,0.70
2023-02-02T02:05:10.813Z,0.50
2023-02-02T02:08:20.912Z,0.37
2023-02-02T02:11:24.911Z,0.50
2023-02-02T02:15:06.408Z,0.40
2023-02-02T02:18:27.487Z,0.40
2023-02-02T02:22:01.067Z,0.40
2023-02-02T02:25:22.585Z,0.40
2023-02-02T02:28:47.387Z,0.40
2023-02-02T02:32:05.834Z,0.50
2023-02-02T02:35:41.742Z,0.40
2023-02-02T02:38:56.888Z,0.77
2023-02-02T02:42:07.875Z,0.40
2023-02-02T02:45:12.887Z,0.50
2023-02-02T02:48:15.573Z,0.30
2023-02-02T02:51:50.364Z,0.50
2023-02-02T02:58:19.766Z,0.60
2023-02-02T03:01:31.630Z,0.90
2023-02-02T03:05:11.132Z,0.60
2023-02-02T03:08:29.564Z,0.50
2023-02-02T03:11:32.309Z,0.50
2023-02-02T03:14:36.193Z,1.08
2023-02-02T03:17:39.175Z,0.70
2023-02-02T03:20:44.051Z,0.60
2023-02-02T03:23:46.683Z,0.82
2023-02-02T03:26:49.132Z,1.00
2023-02-02T03:29:52.418Z,0.88
2023-02-02T03:32:54.808Z,1.00
2023-02-02T03:35:57.366Z,1.10
2023-02-02T03:38:59.724Z,1.05
2023-02-02T03:42:02.369Z,1.20
2023-02-02T03:45:07.724Z,0.80
2023-02-02T03:48:10.481Z,1.02
2023-02-02T03:51:14.394Z,0.90
2023-02-02T03:54:17.006Z,1.02
2023-02-02T03:57:19.401Z,1.65
2023-02-02T04:00:22.163Z,0.85
2023-02-02T04:03:24.737Z,1.10
2023-02-02T04:06:27.270Z,0.73
2023-02-02T04:09:29.845Z,0.70
2023-02-02T04:12:32.181Z,0.90
2023-02-02T04:15:34.941Z,0.77
2023-02-02T04:18:38.182Z,0.70
2023-02-02T04:21:41.108Z,0.73
2023-02-02T04:24:43.439Z,0.75
2023-02-02T04:27:46.194Z,0.68
2023-02-02T04:30:48.719Z,0.60
2023-02-02T04:33:51.409Z,0.73
2023-02-02T04:36:53.747Z,0.77
2023-02-02T04:39:56.393Z,0.95
2023-02-02T04:42:58.765Z,0.77
2023-02-02T04:46:01.683Z,0.50
2023-02-02T04:49:04.042Z,0.70
2023-02-02T04:52:06.737Z,0.70
2023-02-02T04:55:09.302Z,1.10
2023-02-02T04:58:12.168Z,0.52
2023-02-02T05:01:19.887Z,0.85
2023-02-02T05:04:22.620Z,0.77
2023-02-02T05:07:24.893Z,0.75
2023-02-02T05:10:27.717Z,0.70
2023-02-02T05:13:30.047Z,0.68
2023-02-02T05:16:32.666Z,0.55
2023-02-02T05:19:35.037Z,0.65
2023-02-02T05:22:37.633Z,0.70
2023-02-02T05:25:39.924Z,0.50
2023-02-02T05:28:42.959Z,0.50
2023-02-02T05:31:45.370Z,1.10
2023-02-02T05:34:48.021Z,0.88
2023-02-02T05:37:50.500Z,0.70
2023-02-02T05:40:53.102Z,0.62
2023-02-02T05:43:55.440Z,0.80
2023-02-02T05:46:58.087Z,0.80
2023-02-02T05:50:02.503Z,0.70
2023-02-02T05:53:05.182Z,0.93
2023-02-02T05:56:07.791Z,0.80
2023-02-02T05:59:10.435Z,0.80
2023-02-02T06:02:12.754Z,0.90
2023-02-02T06:05:15.497Z,0.55
2023-02-02T06:08:17.862Z,0.75
2023-02-02T06:11:20.481Z,0.90
2023-02-02T06:14:22.773Z,0.70
2023-02-02T06:17:25.488Z,0.88
2023-02-02T06:20:28.761Z,0.90
2023-02-02T06:23:31.858Z,0.80
2023-02-02T06:26:34.204Z,0.80
2023-02-02T06:29:36.830Z,0.80
2023-02-02T06:32:39.353Z,0.80
2023-02-02T06:35:42.032Z,0.98
2023-02-02T06:38:44.551Z,0.98
2023-02-02T06:41:48.371Z,0.73
2023-02-02T06:44:50.738Z,0.93
2023-02-02T06:47:53.765Z,1.02
2023-02-02T06:51:00.630Z,0.90
2023-02-02T06:54:03.939Z,0.60
2023-02-02T06:57:06.281Z,1.00
2023-02-02T07:00:09.763Z,0.50
2023-02-02T07:03:12.107Z,0.93
2023-02-02T07:06:15.891Z,0.65
2023-02-02T07:09:18.381Z,0.93
2023-02-02T07:12:21.042Z,0.70
2023-02-02T07:15:24.120Z,0.95
2023-02-02T07:18:27.038Z,1.10
2023-02-02T07:21:35.459Z,0.90
2023-02-02T07:24:38.287Z,0.65
2023-02-02T07:27:40.625Z,0.80
2023-02-02T07:30:43.291Z,0.80
2023-02-02T07:33:47.346Z,0.95
2023-02-02T07:36:50.375Z,1.00
2023-02-02T07:39:52.733Z,0.62
2023-02-02T07:42:55.535Z,1.37
2023-02-02T07:46:02.824Z,0.98
2023-02-02T07:49:06.147Z,0.75
2023-02-02T07:52:09.495Z,0.75
2023-02-02T07:55:14.700Z,0.82
2023-02-02T07:58:17.397Z,0.90
2023-02-02T08:01:22.854Z,0.98
2023-02-02T08:04:25.675Z,0.90
2023-02-02T08:07:28.234Z,0.90
2023-02-02T08:10:30.882Z,0.73
2023-02-02T08:13:33.361Z,0.88
2023-02-02T08:16:36.120Z,0.80
2023-02-02T08:19:38.543Z,0.70
2023-02-02T08:22:41.450Z,0.95
2023-02-02T08:25:43.807Z,0.82
2023-02-02T08:28:49.245Z,0.65
2023-02-02T08:31:51.672Z,0.80
2023-02-02T08:34:54.609Z,0.70
2023-02-02T08:37:57.016Z,0.70
2023-02-02T08:41:07.511Z,0.62
2023-02-02T08:44:13.301Z,0.98
2023-02-02T08:47:15.897Z,0.80
2023-02-02T08:50:18.356Z,1.17
2023-02-02T08:53:21.381Z,0.80
2023-02-02T08:56:24.214Z,0.90
2023-02-02T08:59:26.860Z,0.82
2023-02-02T09:02:29.232Z,1.02
2023-02-02T09:05:32.068Z,0.82
2023-02-02T09:08:34.671Z,0.90
2023-02-02T09:11:39.304Z,0.70
2023-02-02T09:14:41.625Z,0.80
2023-02-02T09:17:45.181Z,0.82
2023-02-02T09:20:47.564Z,0.85
2023-02-02T09:23:51.586Z,0.88
2023-02-02T09:26:54.043Z,1.05
2023-02-02T09:29:56.983Z,1.58
2023-02-02T09:32:59.314Z,0.80
2023-02-02T09:36:10.576Z,1.00
2023-02-02T09:39:15.017Z,1.20
2023-02-02T09:42:48.772Z,0.80
2023-02-02T09:46:07.374Z,0.90
2023-02-02T09:49:16.776Z,1.15
2023-02-02T09:52:30.212Z,0.98
2023-02-02T09:55:44.541Z,0.62
2023-02-02T09:58:53.810Z,1.00
2023-02-02T10:02:03.920Z,0.95
2023-02-02T10:05:21.202Z,0.68
2023-02-02T10:08:52.383Z,0.60
2023-02-02T10:12:05.191Z,0.75
2023-02-02T10:15:13.473Z,0.88
2023-02-02T10:18:27.124Z,0.82
2023-02-02T10:21:36.635Z,0.70
2023-02-02T10:24:39.447Z,1.12
2023-02-02T10:27:49.087Z,0.93
2023-02-02T10:30:59.934Z,0.82
2023-02-02T10:34:14.138Z,1.27
2023-02-02T10:37:42.317Z,0.98
2023-02-02T10:40:57.997Z,0.95
2023-02-02T10:44:30.074Z,1.00
2023-02-02T10:47:33.856Z,0.77
2023-02-02T10:53:38.774Z,0.80
2023-02-02T10:56:47.513Z,1.02
2023-02-02T11:00:15.899Z,0.70
2023-02-02T11:03:21.207Z,0.62
2023-02-02T11:06:42.301Z,0.82
2023-02-02T11:09:44.924Z,0.80
2023-02-02T11:12:53.177Z,0.65
2023-02-02T11:16:14.462Z,0.90
2023-02-02T11:19:19.977Z,0.70
2023-02-02T11:22:34.124Z,0.68
2023-02-02T11:25:37.952Z,0.85
2023-02-02T11:28:40.687Z,0.98
2023-02-02T11:31:44.484Z,0.68
2023-02-02T11:34:47.226Z,0.60
2023-02-02T11:38:10.169Z,0.85
2023-02-02T11:41:15.393Z,1.00
2023-02-02T11:44:25.874Z,0.80
2023-02-02T11:47:32.683Z,0.70
2023-02-02T11:50:36.429Z,0.82
2023-02-02T11:56:52.001Z,0.82
2023-02-02T12:00:16.060Z,0.80
2023-02-02T12:03:28.447Z,0.90
2023-02-02T12:06:35.662Z,0.90
2023-02-02T12:09:38.358Z,1.20
2023-02-02T12:12:43.432Z,1.00
2023-02-02T12:15:59.022Z,0.80
2023-02-02T12:19:24.719Z,0.95
2023-02-02T12:22:42.465Z,1.10
2023-02-02T12:26:03.083Z,0.90
2023-02-02T12:29:24.826Z,0.70
2023-02-02T12:32:44.740Z,1.00
2023-02-02T12:35:50.291Z,1.00
2023-02-02T12:39:26.711Z,0.80
2023-02-02T12:42:47.739Z,1.00
2023-02-02T12:46:35.487Z,0.93
2023-02-02T12:50:10.394Z,1.05
2023-02-02T12:53:18.556Z,0.85
2023-02-02T12:56:42.694Z,1.10
2023-02-02T13:00:02.951Z,1.08
2023-02-02T13:03:05.665Z,1.10
2023-02-02T13:06:42.343Z,1.10
2023-02-02T13:09:59.455Z,0.85
2023-02-02T13:16:11.577Z,1.10
2023-02-02T13:19:46.559Z,1.05
2023-02-02T13:22:54.240Z,1.40
2023-02-02T13:26:18.095Z,1.80
2023-02-02T13:29:51.419Z,1.00
2023-02-02T13:32:58.254Z,1.02
2023-02-02T13:36:05.940Z,0.90
2023-02-02T13:39:35.196Z,1.30
2023-02-02T13:42:43.588Z,1.33
2023-02-02T13:45:55.844Z,0.90
2023-02-02T13:49:31.318Z,3.15
2023-02-02T13:52:52.173Z,1.50
2023-02-02T13:56:20.180Z,1.30
2023-02-02T13:59:34.428Z,1.15
2023-02-02T14:02:44.124Z,1.37
2023-02-02T14:06:24.815Z,1.02
2023-02-02T14:09:33.082Z,0.90
2023-02-02T14:12:36.370Z,1.00
2023-02-02T14:15:41.216Z,0.95
2023-02-02T14:18:54.145Z,1.05
2023-02-02T14:22:10.104Z,1.73
2023-02-02T14:25:44.881Z,1.15
2023-02-02T14:28:49.985Z,1.27
2023-02-02T14:31:54.991Z,1.50
2023-02-02T14:35:26.719Z,1.20
2023-02-02T14:38:47.444Z,1.15
2023-02-02T14:42:31.154Z,1.23
2023-02-02T14:45:34.857Z,1.10
2023-02-02T14:48:41.210Z,3.33
2023-02-02T14:51:49.296Z,2.08
2023-02-02T14:54:52.006Z,1.27
2023-02-02T14:58:02.456Z,1.05
2023-02-02T15:01:28.969Z,1.20
2023-02-02T15:04:31.815Z,1.10
2023-02-02T15:07:34.189Z,0.98
2023-02-02T15:10:54.996Z,1.95
2023-02-02T15:14:07.437Z,1.52
2023-02-02T15:17:25.117Z,1.10
2023-02-02T15:20:27.373Z,1.33
2023-02-02T15:23:43.761Z,1.20
2023-02-02T15:26:48.359Z,1.27
2023-02-02T15:29:56.878Z,1.12
2023-02-02T15:33:05.480Z,1.20
2023-02-02T15:36:26.991Z,1.17
2023-02-02T15:39:47.352Z,1.20
2023-02-02T15:42:54.934Z,1.30
2023-02-02T15:46:07.390Z,1.30
2023-02-02T15:49:34.434Z,1.37
2023-02-02T15:52:48.253Z,1.42
2023-02-02T15:55:51.687Z,1.10
2023-02-02T15:58:57.068Z,1.57
2023-02-02T16:02:08.471Z,1.40
2023-02-02T16:05:36.652Z,1.75
2023-02-02T16:08:40.025Z,1.58
2023-02-02T16:11:43.475Z,1.20
2023-02-02T16:14:48.368Z,1.80
2023-02-02T16:18:04.752Z,1.40
2023-02-02T16:21:14.979Z,2.30
2023-02-02T16:24:28.645Z,2.12
2023-02-02T16:27:32.773Z,1.12
2023-02-02T16:30:38.886Z,1.20
2023-02-02T16:33:43.021Z,1.35
2023-02-02T16:37:05.244Z,1.67
2023-02-02T16:40:40.052Z,1.50
2023-02-02T16:43:43.466Z,1.08
2023-02-02T16:46:49.857Z,1.47
2023-02-02T16:50:08.435Z,1.83
2023-02-02T16:53:22.724Z,1.40
2023-02-02T16:56:41.817Z,1.40
2023-02-02T16:59:49.701Z,1.40
2023-02-02T17:02:59.200Z,1.33
2023-02-02T17:06:04.101Z,1.67
2023-02-02T17:09:17.033Z,1.20
2023-02-02T17:12:32.755Z,1.48
2023-02-02T17:15:36.934Z,1.45
2023-02-02T17:18:40.173Z,1.48
2023-02-02T17:21:42.846Z,1.12
2023-02-02T17:24:47.077Z,1.25
2023-02-02T17:27:49.889Z,1.30
2023-02-02T17:31:02.124Z,1.00
2023-02-02T17:34:11.800Z,1.30
2023-02-02T17:37:14.183Z,1.45
2023-02-02T17:40:18.339Z,1.90
2023-02-02T17:43:21.141Z,1.70
2023-02-02T17:46:24.911Z,1.52
2023-02-02T17:49:27.924Z,1.75
2023-02-02T17:52:30.524Z,1.40
2023-02-02T17:55:37.534Z,1.90
2023-02-02T17:58:40.526Z,1.33
2023-02-02T18:01:42.933Z,2.12
2023-02-02T18:04:45.883Z,1.40
2023-02-02T18:07:48.244Z,1.50
2023-02-02T18:10:50.931Z,1.75
2023-02-02T18:13:53.360Z,1.50
2023-02-02T18:16:56.205Z,1.20
2023-02-02T18:19:58.515Z,1.50
2023-02-02T18:23:01.112Z,1.95
2023-02-02T18:26:18.696Z,1.50
2023-02-02T18:29:21.388Z,1.67
2023-02-02T18:32:23.712Z,1.65
2023-02-02T18:35:28.370Z,1.52
2023-02-02T18:38:30.932Z,1.90
2023-02-02T18:41:33.665Z,1.50
2023-02-02T18:44:38.395Z,1.80
2023-02-02T18:47:41.590Z,3.33
2023-02-02T18:50:44.064Z,2.70
2023-02-02T18:53:48.014Z,1.98
2023-02-02T18:56:50.336Z,1.60
2023-02-02T18:59:53.073Z,2.20
2023-02-02T19:02:55.519Z,2.00
2023-02-02T19:06:16.537Z,1.58
2023-02-02T19:09:19.031Z,1.62
2023-02-02T19:12:28.520Z,2.03
2023-02-02T19:15:34.091Z,1.45
2023-02-02T19:18:36.747Z,2.10
2023-02-02T19:21:41.425Z,1.90
2023-02-02T19:24:44.047Z,2.00
2023-02-02T19:27:46.374Z,1.98
2023-02-02T19:30:50.833Z,1.65
2023-02-02T19:33:53.629Z,1.90
2023-02-02T19:36:56.214Z,1.73
2023-02-02T19:40:13.722Z,1.45
2023-02-02T19:43:25.203Z,2.03
2023-02-02T19:46:29.554Z,1.77
2023-02-02T19:49:34.329Z,1.67
2023-02-02T19:52:36.740Z,6.70
2023-02-02T19:55:41.703Z,2.10
2023-02-02T19:58:44.309Z,1.90
2023-02-02T20:01:50.553Z,1.60
2023-02-02T20:05:02.036Z,2.12
2023-02-02T20:08:40.122Z,1.90
2023-02-02T20:11:45.899Z,1.87
2023-02-02T20:14:48.777Z,2.20
2023-02-02T20:17:54.339Z,2.17
2023-02-02T20:20:57.508Z,1.77
2023-02-02T20:24:00.144Z,1.90
2023-02-02T20:27:16.597Z,2.20
2023-02-02T20:30:22.979Z,1.60
2023-02-02T20:33:27.406Z,1.52
2023-02-02T20:36:42.864Z,2.03
2023-02-02T20:39:52.047Z,1.90
2023-02-02T20:42:56.952Z,2.20
2023-02-02T20:45:59.335Z,2.10
2023-02-02T20:49:04.673Z,2.47
2023-02-02T20:52:11.108Z,2.00
2023-02-02T20:55:13.964Z,1.92
2023-02-02T20:58:16.291Z,1.95
2023-02-02T21:01:19.476Z,2.60
2023-02-02T21:04:22.444Z,2.70
2023-02-02T21:07:26.120Z,2.85
2023-02-02T21:10:28.860Z,2.33
2023-02-02T21:13:31.627Z,2.12
2023-02-02T21:16:34.063Z,2.30
2023-02-02T21:19:37.285Z,2.23
2023-02-02T21:22:39.931Z,1.83
2023-02-02T21:25:42.549Z,1.77
2023-02-02T21:28:44.822Z,2.10
2023-02-02T21:31:47.749Z,2.33
2023-02-02T21:34:50.423Z,2.55
2023-02-02T21:37:56.707Z,2.20
2023-02-02T21:40:59.625Z,2.03
2023-02-02T21:44:02.334Z,3.00
2023-02-02T21:47:22.328Z,3.00
2023-02-02T21:50:25.093Z,5.25
2023-02-02T21:53:27.793Z,3.37
2023-02-02T21:56:38.192Z,2.30
2023-02-02T21:59:40.520Z,2.25
2023-02-02T22:02:47.997Z,2.50
2023-02-02T22:05:50.892Z,2.05
2023-02-02T22:09:00.121Z,2.30
2023-02-02T22:12:22.313Z,2.37
2023-02-02T22:15:29.843Z,2.97
2023-02-02T22:18:35.628Z,2.40
2023-02-02T22:21:37.900Z,2.70
2023-02-02T22:24:41.590Z,2.58
2023-02-02T22:27:50.085Z,2.55
2023-02-02T22:30:55.026Z,2.20
2023-02-02T22:33:57.422Z,2.40
2023-02-02T22:36:59.985Z,2.20
2023-02-02T22:40:02.310Z,2.05
2023-02-02T22:43:06.496Z,2.42
2023-02-02T22:46:09.010Z,2.12
2023-02-02T22:49:11.632Z,2.30
2023-02-02T22:52:13.959Z,2.40
2023-02-02T22:55:16.781Z,2.37
2023-02-02T22:58:19.091Z,2.58
2023-02-02T23:01:21.663Z,2.10
2023-02-02T23:04:23.984Z,2.25
2023-02-02T23:07:26.610Z,2.30
2023-02-02T23:10:34.607Z,1.85
2023-02-02T23:13:37.767Z,2.35
2023-02-02T23:16:40.067Z,2.15
2023-02-02T23:19:42.669Z,2.03
2023-02-02T23:22:45.205Z,2.53
2023-02-02T23:25:47.882Z,2.10
2023-02-02T23:28:50.798Z,2.20
2023-02-02T23:31:53.534Z,2.33
2023-02-02T23:34:55.895Z,2.20
2023-02-02T23:37:58.617Z,2.58
2023-02-02T23:41:00.963Z,1.92
2023-02-02T23:44:10.873Z,2.17
2023-02-02T23:47:13.244Z,2.03
2023-02-02T23:50:18.837Z,2.40
2023-02-02T23:53:21.309Z,2.17
2023-02-02T23:56:24.502Z,1.83
2023-02-02T23:59:26.822Z,2.17
